Lisa — WDE2705 — position and weather

sailwx.info

Track history (hours):
 
Tides and Currents Weather Stations Pressure Air Temp Water Temp Dewpoint Dewpoint Depression Visibility Wind Speed Wind Dir Waves Ship Positions

Lisa

Owner: Broussard Brothers, Inc., Abbeville, LA. More information available from US FCC via Universal Licensing System and Coast Guard Vessel Documentation Center.

Last reported at 2018-May-22 17:30 UTC. Time now 2018-May-22 17:36 UTC.
Position N 30°06' W 093°20'.

Length 21 m; draft 3 m.

MMSI: 367328540.

Date/timePositionNaut miles runAvg speedWind from/ knotsBaromVisibWave heightAir tempDewpointWater temp
2018-May-22 17:30N 30°06' W 093°20'0 0.1
2018-May-22 17:00N 30°06' W 093°20'1 1.6
2018-May-22 16:30N 30°06' W 093°19'1 1.6
2018-May-22 16:00N 30°06' W 093°20'0 0.1
2018-May-22 15:30N 30°06' W 093°20'0 0.0
2018-May-22 15:00N 30°06' W 093°20'0 0.0
2018-May-22 14:30N 30°06' W 093°20'0 0.0
2018-May-22 13:58N 30°06' W 093°20'0 0.3
2018-May-22 13:30N 30°06' W 093°20'0 0.0
2018-May-22 13:00N 30°06' W 093°20'0 0.9
2018-May-22 12:30N 30°06' W 093°20'0 0.5
2018-May-22 12:01N 30°06' W 093°19'1 1.2
2018-May-22 11:30N 30°06' W 093°20'0 0.0
2018-May-22 10:59N 30°06' W 093°20'0 0.0
2018-May-22 10:30N 30°06' W 093°20'0 0.0
2018-May-22 10:00N 30°06' W 093°20'0 0.0
2018-May-22 09:30N 30°06' W 093°20'0 0.0
2018-May-22 09:00N 30°06' W 093°20'0 0.0
2018-May-22 08:30N 30°06' W 093°20'0 0.0
2018-May-22 08:00N 30°06' W 093°20'0 0.0
2018-May-22 07:30N 30°06' W 093°20'0 0.0
2018-May-22 07:01N 30°06' W 093°20'0 0.0
2018-May-22 06:30N 30°06' W 093°20'0 0.0
2018-May-22 06:00N 30°06' W 093°20'0 0.0
2018-May-22 05:29N 30°06' W 093°20'0 0.0
2018-May-22 05:00N 30°06' W 093°20'0 0.0
2018-May-22 04:30N 30°06' W 093°20'0 0.0
2018-May-22 03:59N 30°06' W 093°20'0 0.0
2018-May-22 03:30N 30°06' W 093°20'0 0.0
2018-May-22 03:00N 30°06' W 093°20'0 0.0
2018-May-22 02:30N 30°06' W 093°20'0 0.0
2018-May-22 01:59N 30°06' W 093°20'0 0.1
2018-May-22 01:30N 30°06' W 093°20'1 1.9
2018-May-22 01:00N 30°06' W 093°19'1 1.8
2018-May-22 00:30N 30°06' W 093°20'0 0.0
2018-May-21 23:59N 30°06' W 093°20'0 0.0
2018-May-21 23:30N 30°06' W 093°20'0 0.0
2018-May-21 23:00N 30°06' W 093°20'0 0.0
2018-May-21 22:30N 30°06' W 093°20'0 0.0
2018-May-21 01:57N 30°06' W 093°20'0 0.0
2018-May-21 01:30N 30°06' W 093°20'0 0.0
2018-May-21 01:00N 30°06' W 093°20'0 0.0
2018-May-21 00:30N 30°06' W 093°20'0 0.0
2018-May-21 00:00N 30°06' W 093°20'0 0.0
2018-May-20 23:31N 30°06' W 093°20'0 0.0
2018-May-20 23:00N 30°06' W 093°20'0 0.0
2018-May-20 22:31N 30°06' W 093°20'0 0.0
2018-May-20 22:00N 30°06' W 093°20'0 0.0
2018-May-20 21:30N 30°06' W 093°20'0 0.0
2018-May-20 21:00N 30°06' W 093°20'0 0.0
2018-May-20 20:30N 30°06' W 093°20'0 0.0
2018-May-20 20:01N 30°06' W 093°20'0 0.0
2018-May-20 19:31N 30°06' W 093°20'0 0.0
2018-May-20 19:00N 30°06' W 093°20'0 0.0
2018-May-20 18:31N 30°06' W 093°20'0 0.0
2018-May-20 17:59N 30°06' W 093°20'0 0.0
2018-May-20 17:30N 30°06' W 093°20'0 0.0
2018-May-20 17:00N 30°06' W 093°20'0 0.0
2018-May-20 16:31N 30°06' W 093°20'0 0.0
2018-May-20 15:59N 30°06' W 093°20'0 0.0
2018-May-20 15:30N 30°06' W 093°20'0 0.0
2018-May-20 15:00N 30°06' W 093°20'0 0.0
2018-May-20 14:30N 30°06' W 093°20'0 0.0
2018-May-20 14:00N 30°06' W 093°20'0 0.0
2018-May-20 13:31N 30°06' W 093°20'0 0.0
2018-May-20 13:00N 30°06' W 093°20'0 0.0
2018-May-20 12:31N 30°06' W 093°20'1 1.4
2018-May-20 12:00N 30°06' W 093°19'2 4.1
2018-May-20 11:30N 30°05' W 093°17'0 0.7
2018-May-20 11:00N 30°05' W 093°17'0 0.0
2018-May-20 10:30N 30°05' W 093°17'2 4.3
2018-May-20 10:01N 30°03' W 093°16'3 5.3
2018-May-20 09:30N 30°01' W 093°14'4 6.7
2018-May-20 08:56N 29°58' W 093°11'70 1.4
2018-May-18 06:54N 29°56' W 091°50'6 0.2
2018-May-17 03:25N 29°51' W 091°53'6 8.4
2018-May-17 02:40N 29°50' W 092°00'1 8.6
2018-May-17 02:30N 29°49' W 092°02'4 8.1
2018-May-17 01:58N 29°48' W 092°06'6 6.7
2018-May-17 01:06N 29°47' W 092°13'6 0.2
2018-May-15 14:16N 29°48' W 092°07'3 4.4
2018-May-15 13:30N 29°47' W 092°10'1 1.5
2018-May-15 12:51N 29°47' W 092°11'0 0.0
2018-May-15 10:59N 29°47' W 092°11'19 7.6
2018-May-15 08:30N 29°49' W 091°50'  
Track history (hours):
 
Tides and Currents Weather Stations Pressure Air Temp Water Temp Dewpoint Dewpoint Depression Visibility Wind Speed Wind Dir Waves Ship Positions

Lisa

Owner: Broussard Brothers, Inc., Abbeville, LA. More information available from US FCC via Universal Licensing System and Coast Guard Vessel Documentation Center.

Last reported at 2018-May-22 17:30 UTC. Time now 2018-May-22 17:36 UTC.
Position N 30°06' W 093°20'.

Length 21 m; draft 3 m.

MMSI: 367328540.

Date/timePositionNaut miles runAvg speedWind from/ knotsBaromVisibWave heightAir tempDewpointWater temp
2018-May-22 17:30N 30°06' W 093°20'0 0.1
2018-May-22 17:00N 30°06' W 093°20'1 1.6
2018-May-22 16:30N 30°06' W 093°19'1 1.6
2018-May-22 16:00N 30°06' W 093°20'0 0.1
2018-May-22 15:30N 30°06' W 093°20'0 0.0
2018-May-22 15:00N 30°06' W 093°20'0 0.0
2018-May-22 14:30N 30°06' W 093°20'0 0.0
2018-May-22 13:58N 30°06' W 093°20'0 0.3
2018-May-22 13:30N 30°06' W 093°20'0 0.0
2018-May-22 13:00N 30°06' W 093°20'0 0.9
2018-May-22 12:30N 30°06' W 093°20'0 0.5
2018-May-22 12:01N 30°06' W 093°19'1 1.2
2018-May-22 11:30N 30°06' W 093°20'0 0.0
2018-May-22 10:59N 30°06' W 093°20'0 0.0
2018-May-22 10:30N 30°06' W 093°20'0 0.0
2018-May-22 10:00N 30°06' W 093°20'0 0.0
2018-May-22 09:30N 30°06' W 093°20'0 0.0
2018-May-22 09:00N 30°06' W 093°20'0 0.0
2018-May-22 08:30N 30°06' W 093°20'0 0.0
2018-May-22 08:00N 30°06' W 093°20'0 0.0
2018-May-22 07:30N 30°06' W 093°20'0 0.0
2018-May-22 07:01N 30°06' W 093°20'0 0.0
2018-May-22 06:30N 30°06' W 093°20'0 0.0
2018-May-22 06:00N 30°06' W 093°20'0 0.0
2018-May-22 05:29N 30°06' W 093°20'0 0.0
2018-May-22 05:00N 30°06' W 093°20'0 0.0
2018-May-22 04:30N 30°06' W 093°20'0 0.0
2018-May-22 03:59N 30°06' W 093°20'0 0.0
2018-May-22 03:30N 30°06' W 093°20'0 0.0
2018-May-22 03:00N 30°06' W 093°20'0 0.0
2018-May-22 02:30N 30°06' W 093°20'0 0.0
2018-May-22 01:59N 30°06' W 093°20'0 0.1
2018-May-22 01:30N 30°06' W 093°20'1 1.9
2018-May-22 01:00N 30°06' W 093°19'1 1.8
2018-May-22 00:30N 30°06' W 093°20'0 0.0
2018-May-21 23:59N 30°06' W 093°20'0 0.0
2018-May-21 23:30N 30°06' W 093°20'0 0.0
2018-May-21 23:00N 30°06' W 093°20'0 0.0
2018-May-21 22:30N 30°06' W 093°20'0 0.0
2018-May-21 01:57N 30°06' W 093°20'0 0.0
2018-May-21 01:30N 30°06' W 093°20'0 0.0
2018-May-21 01:00N 30°06' W 093°20'0 0.0
2018-May-21 00:30N 30°06' W 093°20'0 0.0
2018-May-21 00:00N 30°06' W 093°20'0 0.0
2018-May-20 23:31N 30°06' W 093°20'0 0.0
2018-May-20 23:00N 30°06' W 093°20'0 0.0
2018-May-20 22:31N 30°06' W 093°20'0 0.0
2018-May-20 22:00N 30°06' W 093°20'0 0.0
2018-May-20 21:30N 30°06' W 093°20'0 0.0
2018-May-20 21:00N 30°06' W 093°20'0 0.0
2018-May-20 20:30N 30°06' W 093°20'0 0.0
2018-May-20 20:01N 30°06' W 093°20'0 0.0
2018-May-20 19:31N 30°06' W 093°20'0 0.0
2018-May-20 19:00N 30°06' W 093°20'0 0.0
2018-May-20 18:31N 30°06' W 093°20'0 0.0
2018-May-20 17:59N 30°06' W 093°20'0 0.0
2018-May-20 17:30N 30°06' W 093°20'0 0.0
2018-May-20 17:00N 30°06' W 093°20'0 0.0
2018-May-20 16:31N 30°06' W 093°20'0 0.0
2018-May-20 15:59N 30°06' W 093°20'0 0.0
2018-May-20 15:30N 30°06' W 093°20'0 0.0
2018-May-20 15:00N 30°06' W 093°20'0 0.0
2018-May-20 14:30N 30°06' W 093°20'0 0.0
2018-May-20 14:00N 30°06' W 093°20'0 0.0
2018-May-20 13:31N 30°06' W 093°20'0 0.0
2018-May-20 13:00N 30°06' W 093°20'0 0.0
2018-May-20 12:31N 30°06' W 093°20'1 1.4
2018-May-20 12:00N 30°06' W 093°19'2 4.1
2018-May-20 11:30N 30°05' W 093°17'0 0.7
2018-May-20 11:00N 30°05' W 093°17'0 0.0
2018-May-20 10:30N 30°05' W 093°17'2 4.3
2018-May-20 10:01N 30°03' W 093°16'3 5.3
2018-May-20 09:30N 30°01' W 093°14'4 6.7
2018-May-20 08:56N 29°58' W 093°11'70 1.4
2018-May-18 06:54N 29°56' W 091°50'6 0.2
2018-May-17 03:25N 29°51' W 091°53'6 8.4
2018-May-17 02:40N 29°50' W 092°00'1 8.6
2018-May-17 02:30N 29°49' W 092°02'4 8.1
2018-May-17 01:58N 29°48' W 092°06'6 6.7
2018-May-17 01:06N 29°47' W 092°13'6 0.2
2018-May-15 14:16N 29°48' W 092°07'3 4.4
2018-May-15 13:30N 29°47' W 092°10'1 1.5
2018-May-15 12:51N 29°47' W 092°11'0 0.0
2018-May-15 10:59N 29°47' W 092°11'19 7.6
2018-May-15 08:30N 29°49' W 091°50'  

Dump ship's entire track history